createdAt,value
2022-10-15T00:29:44.702Z,14.13
2022-10-15T00:32:11.546Z,14.17
2022-10-15T00:34:38.192Z,14.16
2022-10-15T00:37:07.476Z,14.13
2022-10-15T00:39:34.734Z,14.10
2022-10-15T00:42:04.674Z,14.12
2022-10-15T00:44:32.256Z,14.09
2022-10-15T00:47:12.434Z,14.17
2022-10-15T00:49:44.456Z,14.16
2022-10-15T00:52:17.833Z,14.16
2022-10-15T00:54:49.722Z,14.12
2022-10-15T00:57:16.516Z,14.04
2022-10-15T00:59:47.955Z,14.06
2022-10-15T01:02:17.870Z,14.08
2022-10-15T01:04:45.319Z,14.09
2022-10-15T01:07:12.739Z,14.06
2022-10-15T01:09:43.221Z,14.06
2022-10-15T01:12:38.263Z,14.10
2022-10-15T01:15:41.612Z,14.04
2022-10-15T01:18:12.534Z,14.12
2022-10-15T01:21:01.453Z,14.05
2022-10-15T01:23:55.854Z,14.04
2022-10-15T01:27:01.667Z,13.98
2022-10-15T01:30:12.975Z,13.94
2022-10-15T01:33:00.200Z,13.98
2022-10-15T01:35:43.891Z,13.92
2022-10-15T01:38:25.839Z,13.89
2022-10-15T01:41:04.584Z,13.86
2022-10-15T01:43:59.503Z,13.82
2022-10-15T01:46:42.674Z,13.79
2022-10-15T01:49:12.407Z,13.77
2022-10-15T01:51:43.480Z,13.75
2022-10-15T01:54:14.611Z,13.72
2022-10-15T01:56:47.208Z,13.75
2022-10-15T01:59:14.088Z,13.75
2022-10-15T02:04:32.121Z,13.65
2022-10-15T02:07:04.826Z,13.69
2022-10-15T02:09:58.750Z,13.74
2022-10-15T02:12:41.723Z,13.72
2022-10-15T02:15:22.059Z,13.71
2022-10-15T02:17:48.524Z,13.77
2022-10-15T02:20:23.096Z,13.81
2022-10-15T02:22:59.912Z,13.78
2022-10-15T02:25:28.048Z,13.82
2022-10-15T02:27:56.939Z,13.79
2022-10-15T02:30:24.747Z,13.84
2022-10-15T02:32:54.429Z,13.82
2022-10-15T02:35:22.917Z,13.86
2022-10-15T02:38:03.978Z,13.88
2022-10-15T02:40:34.341Z,13.86
2022-10-15T02:43:03.265Z,13.89
2022-10-15T02:45:29.878Z,13.86
2022-10-15T02:47:59.381Z,13.88
2022-10-15T02:50:29.111Z,13.92
2022-10-15T02:52:58.575Z,13.96
2022-10-15T02:55:25.431Z,13.91
2022-10-15T02:57:52.547Z,13.94
2022-10-15T03:00:19.602Z,13.91
2022-10-15T03:02:46.160Z,13.92
2022-10-15T03:05:12.934Z,13.94
2022-10-15T03:07:41.344Z,13.98
2022-10-15T03:10:08.403Z,13.98
2022-10-15T03:12:36.472Z,13.94
2022-10-15T03:15:08.334Z,13.94
2022-10-15T03:17:38.167Z,13.91
2022-10-15T03:20:05.568Z,13.94
2022-10-15T03:22:33.889Z,13.92
2022-10-15T03:25:07.929Z,13.99
2022-10-15T03:27:35.026Z,13.91
2022-10-15T03:30:01.764Z,13.98
2022-10-15T03:32:28.790Z,13.89
2022-10-15T03:34:57.019Z,13.82
2022-10-15T03:37:24.752Z,13.85
2022-10-15T03:39:51.811Z,13.82
2022-10-15T03:42:18.793Z,13.89
2022-10-15T03:44:48.846Z,13.81
2022-10-15T03:47:15.690Z,13.81
2022-10-15T03:49:46.088Z,13.85
2022-10-15T03:52:19.423Z,13.86
2022-10-15T03:54:45.877Z,13.86
2022-10-15T03:57:14.194Z,13.84
2022-10-15T03:59:40.793Z,13.82
2022-10-15T04:02:07.572Z,13.81
2022-10-15T04:04:34.040Z,13.77
2022-10-15T04:07:01.015Z,13.74
2022-10-15T04:09:27.503Z,13.82
2022-10-15T04:11:53.972Z,13.77
2022-10-15T04:14:20.612Z,13.78
2022-10-15T04:16:47.052Z,13.74
2022-10-15T04:19:13.664Z,13.72
2022-10-15T04:21:40.122Z,13.75
2022-10-15T04:24:06.716Z,13.68
2022-10-15T04:26:36.063Z,13.69
2022-10-15T04:29:02.663Z,13.72
2022-10-15T04:31:29.235Z,13.75
2022-10-15T04:33:55.752Z,13.69
2022-10-15T04:36:22.205Z,13.74
2022-10-15T04:38:48.727Z,13.72
2022-10-15T04:41:21.469Z,13.75
2022-10-15T04:43:48.106Z,13.67
2022-10-15T04:46:14.629Z,13.59
2022-10-15T04:48:43.183Z,13.61
2022-10-15T04:51:18.866Z,13.57
2022-10-15T04:53:45.524Z,13.58
2022-10-15T04:56:15.439Z,13.55
2022-10-15T04:58:42.749Z,13.58
2022-10-15T05:01:14.545Z,13.57
2022-10-15T05:03:49.118Z,13.58
2022-10-15T05:06:20.748Z,13.67
2022-10-15T05:08:48.682Z,13.67
2022-10-15T05:11:26.713Z,13.72
2022-10-15T05:13:56.153Z,13.74
2022-10-15T05:16:25.535Z,13.72
2022-10-15T05:18:55.969Z,13.68
2022-10-15T05:21:22.730Z,13.69
2022-10-15T05:23:50.258Z,13.68
2022-10-15T05:26:22.847Z,13.65
2022-10-15T05:28:50.577Z,13.67
2022-10-15T05:31:19.261Z,13.65
2022-10-15T05:33:47.331Z,13.67
2022-10-15T05:36:13.836Z,13.67
2022-10-15T05:38:41.213Z,13.64
2022-10-15T05:41:07.668Z,13.65
2022-10-15T05:43:37.350Z,13.61
2022-10-15T05:46:07.189Z,13.62
2022-10-15T05:48:33.746Z,13.65
2022-10-15T05:51:08.130Z,13.62
2022-10-15T05:53:55.204Z,13.64
2022-10-15T05:56:22.285Z,13.64
2022-10-15T05:58:48.763Z,13.57
2022-10-15T06:01:15.416Z,13.57
2022-10-15T06:03:42.938Z,13.58
2022-10-15T06:06:26.542Z,13.55
2022-10-15T06:08:54.297Z,13.55
2022-10-15T06:11:21.300Z,13.58
2022-10-15T06:13:48.057Z,13.55
2022-10-15T06:16:19.411Z,13.55
2022-10-15T06:18:49.549Z,13.55
2022-10-15T06:21:15.994Z,13.54
2022-10-15T06:23:42.438Z,13.58
2022-10-15T06:26:09.994Z,13.61
2022-10-15T06:28:37.619Z,13.64
2022-10-15T06:33:50.250Z,13.57
2022-10-15T06:36:17.108Z,13.54
2022-10-15T06:38:46.606Z,13.55
2022-10-15T06:41:13.258Z,13.51
2022-10-15T06:43:39.986Z,13.48
2022-10-15T06:46:06.954Z,13.84
2022-10-15T06:48:34.661Z,13.92
2022-10-15T06:51:04.095Z,14.17
2022-10-15T06:53:31.568Z,14.44
2022-10-15T06:55:59.350Z,14.27
2022-10-15T06:58:26.454Z,14.17
2022-10-15T07:00:53.157Z,14.04
2022-10-15T07:03:19.816Z,14.01
2022-10-15T07:05:46.343Z,14.02
2022-10-15T07:08:16.875Z,13.99
2022-10-15T07:10:45.917Z,14.19
2022-10-15T07:13:12.520Z,14.16
2022-10-15T07:15:39.104Z,14.22
2022-10-15T07:18:05.830Z,14.16
2022-10-15T07:20:32.625Z,14.22
2022-10-15T07:23:02.824Z,14.16
2022-10-15T07:25:29.657Z,14.17
2022-10-15T07:27:57.248Z,14.17
2022-10-15T07:30:27.704Z,14.16
2022-10-15T07:32:57.142Z,14.22
2022-10-15T07:35:24.498Z,14.26
2022-10-15T07:37:51.147Z,14.27
2022-10-15T07:40:18.349Z,14.25
2022-10-15T07:42:44.987Z,14.36
2022-10-15T07:45:11.602Z,14.37
2022-10-15T07:47:40.563Z,14.43
2022-10-15T07:50:07.374Z,14.49
2022-10-15T07:52:34.390Z,14.57
2022-10-15T07:55:01.000Z,14.59
2022-10-15T07:57:27.620Z,14.75
2022-10-15T07:59:54.211Z,14.68
2022-10-15T08:02:21.909Z,14.75
2022-10-15T08:04:48.852Z,14.78
2022-10-15T08:07:15.415Z,14.91
2022-10-15T08:09:41.984Z,14.84
2022-10-15T08:12:11.872Z,14.88
2022-10-15T08:14:38.945Z,14.96
2022-10-15T08:17:06.717Z,15.02
2022-10-15T08:19:33.269Z,15.05
2022-10-15T08:21:59.950Z,15.19
2022-10-15T08:24:26.659Z,15.25
2022-10-15T08:26:53.275Z,15.33
2022-10-15T08:29:19.842Z,15.32
2022-10-15T08:31:46.480Z,15.46
2022-10-15T08:34:13.033Z,15.66
2022-10-15T08:36:39.671Z,15.76
2022-10-15T08:39:07.814Z,15.97
2022-10-15T08:41:48.042Z,15.90
2022-10-15T08:44:37.428Z,15.89
2022-10-15T08:47:25.879Z,15.86
2022-10-15T08:49:58.061Z,16.04
2022-10-15T08:52:36.799Z,16.07
2022-10-15T08:55:04.148Z,16.04
2022-10-15T08:57:43.411Z,16.07
2022-10-15T09:00:21.583Z,16.08
2022-10-15T09:03:05.691Z,16.13
2022-10-15T09:05:43.687Z,16.08
2022-10-15T09:09:04.207Z,16.15
2022-10-15T09:11:40.269Z,16.14
2022-10-15T09:14:13.524Z,16.08
2022-10-15T09:16:41.248Z,16.04
2022-10-15T09:19:18.192Z,15.91
2022-10-15T09:21:47.775Z,15.91
2022-10-15T09:24:24.555Z,15.90
2022-10-15T09:27:04.634Z,16.10
2022-10-15T09:29:41.692Z,16.17
2022-10-15T09:32:13.793Z,16.26
2022-10-15T09:34:48.931Z,16.34
2022-10-15T09:37:32.757Z,16.71
2022-10-15T09:40:04.936Z,17.47
2022-10-15T09:42:38.235Z,17.93
2022-10-15T09:45:11.615Z,18.41
2022-10-15T09:47:41.046Z,18.00
2022-10-15T09:50:10.857Z,17.69
2022-10-15T09:53:14.946Z,17.69
2022-10-15T09:55:50.397Z,17.89
2022-10-15T09:58:40.142Z,18.14
2022-10-15T10:01:16.531Z,18.12
2022-10-15T10:03:43.219Z,17.92
2022-10-15T10:06:12.738Z,17.78
2022-10-15T10:08:56.099Z,17.59
2022-10-15T10:11:25.570Z,17.55
2022-10-15T10:13:56.607Z,17.47
2022-10-15T10:16:24.054Z,17.47
2022-10-15T10:19:13.933Z,17.03
2022-10-15T10:21:42.995Z,16.73
2022-10-15T10:24:18.957Z,16.71
2022-10-15T10:26:46.867Z,16.92
2022-10-15T10:29:32.920Z,17.17
2022-10-15T10:32:01.168Z,17.73
2022-10-15T10:34:30.600Z,18.72
2022-10-15T10:36:57.777Z,18.43
2022-10-15T10:39:32.234Z,18.21
2022-10-15T10:42:20.886Z,18.13
2022-10-15T10:44:47.515Z,17.87
2022-10-15T10:47:19.561Z,17.69
2022-10-15T10:49:57.460Z,17.73
2022-10-15T10:52:27.123Z,17.61
2022-10-15T10:55:07.900Z,17.50
2022-10-15T10:57:51.332Z,17.65
2022-10-15T11:00:38.963Z,17.66
2022-10-15T11:03:08.425Z,17.75
2022-10-15T11:05:40.694Z,17.76
2022-10-15T11:08:32.283Z,17.81
2022-10-15T11:11:22.026Z,17.92
2022-10-15T11:14:01.131Z,18.09
2022-10-15T11:16:45.187Z,18.26
2022-10-15T11:22:31.625Z,18.31
2022-10-15T11:25:06.951Z,18.36
2022-10-15T11:27:49.107Z,18.37
2022-10-15T11:30:24.523Z,18.47
2022-10-15T11:33:08.830Z,18.41
2022-10-15T11:35:53.039Z,18.48
2022-10-15T11:38:54.472Z,18.58
2022-10-15T11:41:39.196Z,18.61
2022-10-15T11:44:34.753Z,18.67
2022-10-15T11:47:32.416Z,18.65
2022-10-15T11:50:01.972Z,18.70
2022-10-15T11:52:43.629Z,18.75
2022-10-15T11:55:23.034Z,18.78
2022-10-15T11:57:56.678Z,18.77
2022-10-15T12:00:28.937Z,18.85
2022-10-15T12:02:57.401Z,18.84
2022-10-15T12:05:38.627Z,18.85
2022-10-15T12:08:07.224Z,19.01
2022-10-15T12:11:01.948Z,18.99
2022-10-15T12:13:39.729Z,19.09
2022-10-15T12:16:22.994Z,19.19
2022-10-15T12:19:03.049Z,19.30
2022-10-15T12:21:41.524Z,19.40
2022-10-15T12:24:40.906Z,19.47
2022-10-15T12:27:19.809Z,19.56
2022-10-15T12:29:52.826Z,19.66
2022-10-15T12:32:23.332Z,19.77
2022-10-15T12:35:15.397Z,19.77
2022-10-15T12:37:44.706Z,19.73
2022-10-15T12:40:23.291Z,19.73
2022-10-15T12:42:53.225Z,19.71
2022-10-15T12:45:29.293Z,19.70
2022-10-15T12:48:18.292Z,19.68
2022-10-15T12:50:45.932Z,19.71
2022-10-15T12:53:24.631Z,19.67
2022-10-15T12:56:09.944Z,19.63
2022-10-15T12:58:37.277Z,19.64
2022-10-15T13:01:09.826Z,19.57
2022-10-15T13:03:39.761Z,19.64
2022-10-15T13:06:21.565Z,19.70
2022-10-15T13:08:55.746Z,19.81
2022-10-15T13:11:30.134Z,20.04
2022-10-15T13:14:01.472Z,20.18
2022-10-15T13:16:29.657Z,20.25
2022-10-15T13:18:57.580Z,20.28
2022-10-15T13:21:48.597Z,20.26
2022-10-15T13:24:19.362Z,20.29
2022-10-15T13:26:46.752Z,20.28
2022-10-15T13:29:21.959Z,20.30
2022-10-15T13:31:50.363Z,20.26
2022-10-15T13:34:28.704Z,20.39
2022-10-15T13:36:58.030Z,20.45
2022-10-15T13:42:14.350Z,20.63
2022-10-15T13:44:41.753Z,20.72
2022-10-15T13:47:37.697Z,20.70
2022-10-15T13:50:30.538Z,20.70
2022-10-15T13:52:59.708Z,20.59
2022-10-15T13:55:36.989Z,20.65
2022-10-15T13:58:13.894Z,20.60
2022-10-15T14:00:40.675Z,20.53
2022-10-15T14:03:14.588Z,20.60
2022-10-15T14:05:42.752Z,20.52
2022-10-15T14:08:27.618Z,20.59
2022-10-15T14:10:58.822Z,20.62
2022-10-15T14:13:27.302Z,20.65
2022-10-15T14:18:35.537Z,20.57
2022-10-15T14:21:02.821Z,20.65
2022-10-15T14:23:29.907Z,20.62
2022-10-15T14:26:02.479Z,20.77
2022-10-15T14:28:32.979Z,20.98
2022-10-15T14:31:00.932Z,21.06
2022-10-15T14:33:33.690Z,20.94
2022-10-15T14:36:42.368Z,20.73
2022-10-15T14:39:36.651Z,20.81
2022-10-15T14:42:06.298Z,20.84
2022-10-15T14:44:46.887Z,20.91
2022-10-15T14:47:23.001Z,20.83
2022-10-15T14:50:00.212Z,20.67
2022-10-15T14:52:30.581Z,20.49
2022-10-15T14:55:32.998Z,20.43
2022-10-15T14:58:02.128Z,20.45
2022-10-15T15:00:44.345Z,20.39
2022-10-15T15:03:16.493Z,20.36
2022-10-15T15:05:54.006Z,20.32
2022-10-15T15:08:21.553Z,20.28
2022-10-15T15:10:50.212Z,20.18
2022-10-15T15:13:26.008Z,20.15
2022-10-15T15:15:53.134Z,20.11
2022-10-15T15:18:20.757Z,20.11
2022-10-15T15:20:48.546Z,19.77
2022-10-15T15:23:21.825Z,18.88
2022-10-15T15:25:49.460Z,18.43
2022-10-15T15:28:16.970Z,18.27
2022-10-15T15:30:44.819Z,17.85
2022-10-15T15:33:13.784Z,17.54
2022-10-15T15:35:52.980Z,17.38
2022-10-15T15:38:22.301Z,17.31
2022-10-15T15:40:49.867Z,17.31
2022-10-15T15:43:19.735Z,17.21
2022-10-15T15:45:46.822Z,17.14
2022-10-15T15:48:14.313Z,17.13
2022-10-15T15:50:41.024Z,17.03
2022-10-15T15:53:07.632Z,16.99
2022-10-15T15:55:34.207Z,16.97
2022-10-15T15:58:00.763Z,16.99
2022-10-15T16:00:27.340Z,17.00
2022-10-15T16:02:57.003Z,17.04
2022-10-15T16:05:25.297Z,17.00
2022-10-15T16:07:51.813Z,16.92
2022-10-15T16:10:18.826Z,16.93
2022-10-15T16:12:45.428Z,16.90
2022-10-15T16:15:14.814Z,16.93
2022-10-15T16:17:43.301Z,16.86
2022-10-15T16:20:10.960Z,16.90
2022-10-15T16:22:37.434Z,16.90
2022-10-15T16:25:04.351Z,16.84
2022-10-15T16:27:32.879Z,16.82
2022-10-15T16:29:59.642Z,16.79
2022-10-15T16:32:26.664Z,16.82
2022-10-15T16:34:53.424Z,16.83
2022-10-15T16:37:20.151Z,16.82
2022-10-15T16:39:46.733Z,16.82
2022-10-15T16:42:14.036Z,16.80
2022-10-15T16:44:40.747Z,16.86
2022-10-15T16:47:07.505Z,16.83
2022-10-15T16:49:34.114Z,16.84
2022-10-15T16:52:00.733Z,16.84
2022-10-15T16:54:29.949Z,16.80
2022-10-15T16:56:56.591Z,16.83
2022-10-15T16:59:23.423Z,16.83
2022-10-15T17:01:50.032Z,16.77
2022-10-15T17:04:16.782Z,16.84
2022-10-15T17:06:43.347Z,16.82
2022-10-15T17:09:09.935Z,16.86
2022-10-15T17:11:38.765Z,16.80
2022-10-15T17:14:09.178Z,16.75
2022-10-15T17:16:44.351Z,16.76
2022-10-15T17:19:15.743Z,16.82
2022-10-15T17:21:43.734Z,16.76
2022-10-15T17:24:14.904Z,16.68
2022-10-15T17:26:43.706Z,16.71
2022-10-15T17:29:27.766Z,16.82
2022-10-15T17:31:57.475Z,16.82
2022-10-15T17:34:24.196Z,16.86
2022-10-15T17:36:52.305Z,16.83
2022-10-15T17:39:21.781Z,16.93
2022-10-15T17:41:49.488Z,16.86
2022-10-15T17:44:16.098Z,16.89
2022-10-15T17:46:42.832Z,16.79
2022-10-15T17:49:11.079Z,16.82
2022-10-15T17:51:38.148Z,16.80
2022-10-15T17:58:52.322Z,16.58
2022-10-15T18:01:33.255Z,16.51
2022-10-15T18:04:00.468Z,16.48
2022-10-15T18:06:28.403Z,16.48
2022-10-15T18:08:56.233Z,16.46
2022-10-15T18:11:26.260Z,16.51
2022-10-15T18:13:52.971Z,16.45
2022-10-15T18:16:21.572Z,16.55
2022-10-15T18:18:48.913Z,16.55
2022-10-15T18:21:17.921Z,16.43
2022-10-15T18:23:44.778Z,16.43
2022-10-15T18:26:18.687Z,16.31
2022-10-15T18:28:47.336Z,16.14
2022-10-15T18:31:15.444Z,16.03
2022-10-15T18:33:44.114Z,15.89
2022-10-15T18:36:14.159Z,15.78
2022-10-15T18:38:43.436Z,15.70
2022-10-15T18:41:17.108Z,15.63
2022-10-15T18:43:44.554Z,15.64
2022-10-15T18:46:11.133Z,15.67
2022-10-15T18:48:38.516Z,15.69
2022-10-15T18:51:11.855Z,15.71
2022-10-15T18:53:39.482Z,15.70
2022-10-15T18:56:07.227Z,15.63
2022-10-15T18:58:34.189Z,15.59
2022-10-15T19:01:24.862Z,15.49
2022-10-15T19:03:52.800Z,15.42
2022-10-15T19:06:23.456Z,15.38
2022-10-15T19:08:50.551Z,15.32
2022-10-15T19:11:19.361Z,15.26
2022-10-15T19:13:46.064Z,15.19
2022-10-15T19:16:12.748Z,15.14
2022-10-15T19:18:39.599Z,15.08
2022-10-15T19:21:06.472Z,15.01
2022-10-15T19:23:34.174Z,15.01
2022-10-15T19:26:00.951Z,14.91
2022-10-15T19:28:29.212Z,14.94
2022-10-15T19:31:02.081Z,14.84
2022-10-15T19:33:30.782Z,14.80
2022-10-15T19:35:57.412Z,14.75
2022-10-15T19:38:25.309Z,14.71
2022-10-15T19:40:52.217Z,14.66
2022-10-15T19:43:20.311Z,14.63
2022-10-15T19:45:47.672Z,14.57
2022-10-15T19:48:17.014Z,14.52
2022-10-15T19:50:45.716Z,14.54
2022-10-15T19:53:16.442Z,14.49
2022-10-15T19:55:44.774Z,14.56
2022-10-15T19:58:11.686Z,14.56
2022-10-15T20:00:38.293Z,14.59
2022-10-15T20:03:04.993Z,14.64
2022-10-15T20:05:31.879Z,14.63
2022-10-15T20:07:58.500Z,14.56
2022-10-15T20:10:26.422Z,14.57
2022-10-15T20:12:53.692Z,14.54
2022-10-15T20:15:20.507Z,14.53
2022-10-15T20:17:48.138Z,14.53
2022-10-15T20:20:15.193Z,14.46
2022-10-15T20:22:42.074Z,14.47
2022-10-15T20:25:09.050Z,14.50
2022-10-15T20:27:35.624Z,14.43
2022-10-15T20:30:02.246Z,14.44
2022-10-15T20:32:36.326Z,14.49
2022-10-15T20:35:04.791Z,14.50
2022-10-15T20:37:31.891Z,14.54
2022-10-15T20:40:00.262Z,14.59
2022-10-15T20:42:27.730Z,14.54
2022-10-15T20:44:54.662Z,14.50
2022-10-15T20:47:23.338Z,14.43
2022-10-15T20:49:52.359Z,14.40
2022-10-15T20:52:19.381Z,14.43
2022-10-15T20:54:46.311Z,14.54
2022-10-15T20:57:13.070Z,14.56
2022-10-15T20:59:39.778Z,14.54
2022-10-15T21:02:07.037Z,14.57
2022-10-15T21:04:34.066Z,14.56
2022-10-15T21:07:00.668Z,14.52
2022-10-15T21:09:27.397Z,14.47
2022-10-15T21:11:54.004Z,14.46
2022-10-15T21:14:20.616Z,14.46
2022-10-15T21:16:47.324Z,14.47
2022-10-15T21:19:14.182Z,14.47
2022-10-15T21:21:40.960Z,14.49
2022-10-15T21:24:07.588Z,14.49
2022-10-15T21:26:34.162Z,14.54
2022-10-15T21:29:00.861Z,14.56
2022-10-15T21:31:28.484Z,14.57
2022-10-15T21:33:55.734Z,14.60
2022-10-15T21:36:24.703Z,14.60
2022-10-15T21:39:03.089Z,14.56
2022-10-15T21:41:31.544Z,14.60
2022-10-15T21:43:59.555Z,14.71
2022-10-15T21:46:27.152Z,14.77
2022-10-15T21:48:54.776Z,14.75
2022-10-15T21:51:33.717Z,14.70
2022-10-15T21:54:01.549Z,14.77
2022-10-15T21:56:28.190Z,14.77
2022-10-15T21:58:55.101Z,14.74
2022-10-15T22:01:27.786Z,14.75
2022-10-15T22:03:59.963Z,14.80
2022-10-15T22:06:27.405Z,14.80
2022-10-15T22:08:54.154Z,14.83
2022-10-15T22:11:29.798Z,14.92
2022-10-15T22:13:59.118Z,14.89
2022-10-15T22:16:27.409Z,14.88
2022-10-15T22:18:55.577Z,14.83
2022-10-15T22:21:28.151Z,14.83
2022-10-15T22:24:00.276Z,14.64
2022-10-15T22:26:29.350Z,14.61
2022-10-15T22:28:58.830Z,14.57
2022-10-15T22:31:26.247Z,14.53
2022-10-15T22:33:53.119Z,14.40
2022-10-15T22:36:25.179Z,14.27
2022-10-15T22:39:04.984Z,14.19
2022-10-15T22:41:35.592Z,14.15
2022-10-15T22:44:02.478Z,14.10
2022-10-15T22:46:31.847Z,14.08
2022-10-15T22:48:58.403Z,14.13
2022-10-15T22:51:25.404Z,14.05
2022-10-15T22:53:55.597Z,13.98
2022-10-15T22:56:22.537Z,13.85
2022-10-15T22:58:49.256Z,13.82
2022-10-15T23:01:30.184Z,13.78
2022-10-15T23:03:59.734Z,13.82
2022-10-15T23:06:26.973Z,13.77
2022-10-15T23:08:55.775Z,13.71
2022-10-15T23:11:28.258Z,13.64
2022-10-15T23:13:58.117Z,13.64
2022-10-15T23:16:30.314Z,13.62
2022-10-15T23:19:02.444Z,13.61
2022-10-15T23:21:30.486Z,13.68
2022-10-15T23:23:57.388Z,13.77
2022-10-15T23:26:24.347Z,13.85
2022-10-15T23:28:53.543Z,13.94
2022-10-15T23:31:32.648Z,14.06
2022-10-15T23:33:59.772Z,14.19
2022-10-15T23:36:27.668Z,14.26
2022-10-15T23:39:00.186Z,14.33
2022-10-15T23:41:28.191Z,14.27
2022-10-15T23:43:55.134Z,14.29
2022-10-15T23:46:22.802Z,14.32
2022-10-15T23:48:49.519Z,14.29
2022-10-15T23:51:28.371Z,14.23
2022-10-15T23:53:57.560Z,14.22
2022-10-15T23:56:25.003Z,14.15
